sensor_id;sensor_type;location;lat;lon;timestamp;temperature;humidity
65876;HTU21D;52657;51.128;5.938;2024-01-06T00:02:00;10.72;75.21
65876;HTU21D;52657;51.128;5.938;2024-01-06T00:04:26;10.72;75.20
65876;HTU21D;52657;51.128;5.938;2024-01-06T00:06:51;10.72;75.15
65876;HTU21D;52657;51.128;5.938;2024-01-06T00:09:17;10.69;75.25
65876;HTU21D;52657;51.128;5.938;2024-01-06T00:11:42;10.67;75.40
65876;HTU21D;52657;51.128;5.938;2024-01-06T00:14:08;10.68;75.48
65876;HTU21D;52657;51.128;5.938;2024-01-06T00:16:34;10.70;75.46
65876;HTU21D;52657;51.128;5.938;2024-01-06T00:18:59;10.71;75.41
65876;HTU21D;52657;51.128;5.938;2024-01-06T00:21:26;10.74;75.44
65876;HTU21D;52657;51.128;5.938;2024-01-06T00:23:51;10.73;75.40
65876;HTU21D;52657;51.128;5.938;2024-01-06T00:26:17;10.74;75.41
65876;HTU21D;52657;51.128;5.938;2024-01-06T00:28:43;10.78;75.33
65876;HTU21D;52657;51.128;5.938;2024-01-06T00:31:09;10.80;75.27
65876;HTU21D;52657;51.128;5.938;2024-01-06T00:33:34;10.83;75.25
65876;HTU21D;52657;51.128;5.938;2024-01-06T00:36:00;10.81;75.23
65876;HTU21D;52657;51.128;5.938;2024-01-06T00:38:26;10.78;75.42
65876;HTU21D;52657;51.128;5.938;2024-01-06T00:40:52;10.74;75.62
65876;HTU21D;52657;51.128;5.938;2024-01-06T00:43:17;10.78;75.63
65876;HTU21D;52657;51.128;5.938;2024-01-06T00:45:43;10.81;75.61
65876;HTU21D;52657;51.128;5.938;2024-01-06T00:48:08;10.82;75.57
65876;HTU21D;52657;51.128;5.938;2024-01-06T00:50:34;10.83;75.48
65876;HTU21D;52657;51.128;5.938;2024-01-06T00:53:00;10.84;75.50
65876;HTU21D;52657;51.128;5.938;2024-01-06T00:55:25;10.87;75.40
65876;HTU21D;52657;51.128;5.938;2024-01-06T00:57:51;10.89;75.32
65876;HTU21D;52657;51.128;5.938;2024-01-06T01:00:17;10.90;75.24
65876;HTU21D;52657;51.128;5.938;2024-01-06T01:02:43;10.90;75.26
65876;HTU21D;52657;51.128;5.938;2024-01-06T01:05:08;10.88;75.26
65876;HTU21D;52657;51.128;5.938;2024-01-06T01:07:34;10.90;75.30
65876;HTU21D;52657;51.128;5.938;2024-01-06T01:10:00;10.88;75.32
65876;HTU21D;52657;51.128;5.938;2024-01-06T01:12:26;10.90;75.28
65876;HTU21D;52657;51.128;5.938;2024-01-06T01:14:52;10.90;75.28
65876;HTU21D;52657;51.128;5.938;2024-01-06T01:17:18;10.93;75.22
65876;HTU21D;52657;51.128;5.938;2024-01-06T01:19:44;10.89;75.13
65876;HTU21D;52657;51.128;5.938;2024-01-06T01:22:10;10.89;75.24
65876;HTU21D;52657;51.128;5.938;2024-01-06T01:24:36;10.89;75.21
65876;HTU21D;52657;51.128;5.938;2024-01-06T01:27:02;10.90;75.18
65876;HTU21D;52657;51.128;5.938;2024-01-06T01:29:28;10.87;75.17
65876;HTU21D;52657;51.128;5.938;2024-01-06T01:31:54;10.89;75.19
65876;HTU21D;52657;51.128;5.938;2024-01-06T01:34:20;10.88;75.20
65876;HTU21D;52657;51.128;5.938;2024-01-06T01:36:45;10.88;75.18
65876;HTU21D;52657;51.128;5.938;2024-01-06T01:39:11;10.87;75.15
65876;HTU21D;52657;51.128;5.938;2024-01-06T01:41:37;10.88;75.10
65876;HTU21D;52657;51.128;5.938;2024-01-06T01:44:03;10.92;75.03
65876;HTU21D;52657;51.128;5.938;2024-01-06T01:46:30;10.95;74.89
65876;HTU21D;52657;51.128;5.938;2024-01-06T01:48:57;10.97;74.80
65876;HTU21D;52657;51.128;5.938;2024-01-06T01:51:27;10.98;74.66
65876;HTU21D;52657;51.128;5.938;2024-01-06T01:53:54;10.99;74.57
65876;HTU21D;52657;51.128;5.938;2024-01-06T01:56:24;10.99;74.52
65876;HTU21D;52657;51.128;5.938;2024-01-06T01:58:51;10.99;74.50
65876;HTU21D;52657;51.128;5.938;2024-01-06T02:01:18;11.00;74.46
65876;HTU21D;52657;51.128;5.938;2024-01-06T02:03:44;10.97;74.36
65876;HTU21D;52657;51.128;5.938;2024-01-06T02:06:10;10.96;74.41
65876;HTU21D;52657;51.128;5.938;2024-01-06T02:08:37;10.94;74.32
65876;HTU21D;52657;51.128;5.938;2024-01-06T02:11:04;10.92;74.31
65876;HTU21D;52657;51.128;5.938;2024-01-06T02:13:34;10.88;74.25
65876;HTU21D;52657;51.128;5.938;2024-01-06T02:16:04;10.88;74.26
65876;HTU21D;52657;51.128;5.938;2024-01-06T02:18:31;10.87;74.31
65876;HTU21D;52657;51.128;5.938;2024-01-06T02:20:59;10.86;74.21
65876;HTU21D;52657;51.128;5.938;2024-01-06T02:23:26;10.88;74.04
65876;HTU21D;52657;51.128;5.938;2024-01-06T02:25:51;10.85;73.99
65876;HTU21D;52657;51.128;5.938;2024-01-06T02:28:17;10.83;73.97
65876;HTU21D;52657;51.128;5.938;2024-01-06T02:30:43;10.82;74.02
65876;HTU21D;52657;51.128;5.938;2024-01-06T02:33:09;10.81;73.91
65876;HTU21D;52657;51.128;5.938;2024-01-06T02:35:35;10.80;73.87
65876;HTU21D;52657;51.128;5.938;2024-01-06T02:38:02;10.77;73.86
65876;HTU21D;52657;51.128;5.938;2024-01-06T02:40:28;10.73;73.87
65876;HTU21D;52657;51.128;5.938;2024-01-06T02:42:54;10.74;73.73
65876;HTU21D;52657;51.128;5.938;2024-01-06T02:45:19;10.67;73.70
65876;HTU21D;52657;51.128;5.938;2024-01-06T02:47:45;10.62;73.85
65876;HTU21D;52657;51.128;5.938;2024-01-06T02:50:11;10.55;73.88
65876;HTU21D;52657;51.128;5.938;2024-01-06T02:52:37;10.53;73.86
65876;HTU21D;52657;51.128;5.938;2024-01-06T02:55:03;10.49;73.92
65876;HTU21D;52657;51.128;5.938;2024-01-06T02:57:30;10.49;73.99
65876;HTU21D;52657;51.128;5.938;2024-01-06T02:59:56;10.49;73.87
65876;HTU21D;52657;51.128;5.938;2024-01-06T03:02:22;10.46;73.71
65876;HTU21D;52657;51.128;5.938;2024-01-06T03:04:48;10.40;73.61
65876;HTU21D;52657;51.128;5.938;2024-01-06T03:07:14;10.34;73.33
65876;HTU21D;52657;51.128;5.938;2024-01-06T03:09:40;10.25;73.34
65876;HTU21D;52657;51.128;5.938;2024-01-06T03:12:06;10.22;73.52
65876;HTU21D;52657;51.128;5.938;2024-01-06T03:14:35;10.26;73.34
65876;HTU21D;52657;51.128;5.938;2024-01-06T03:17:02;10.26;73.22
65876;HTU21D;52657;51.128;5.938;2024-01-06T03:19:29;10.31;73.17
65876;HTU21D;52657;51.128;5.938;2024-01-06T03:21:54;10.34;72.83
65876;HTU21D;52657;51.128;5.938;2024-01-06T03:24:22;10.29;72.90
65876;HTU21D;52657;51.128;5.938;2024-01-06T03:26:48;10.27;72.90
65876;HTU21D;52657;51.128;5.938;2024-01-06T03:29:14;10.25;72.90
65876;HTU21D;52657;51.128;5.938;2024-01-06T03:31:44;10.27;72.79
65876;HTU21D;52657;51.128;5.938;2024-01-06T03:34:09;10.24;72.52
65876;HTU21D;52657;51.128;5.938;2024-01-06T03:36:37;10.23;72.47
65876;HTU21D;52657;51.128;5.938;2024-01-06T03:39:03;10.22;72.51
65876;HTU21D;52657;51.128;5.938;2024-01-06T03:41:29;10.24;72.25
65876;HTU21D;52657;51.128;5.938;2024-01-06T03:43:54;10.27;72.18
65876;HTU21D;52657;51.128;5.938;2024-01-06T03:46:22;10.28;71.77
65876;HTU21D;52657;51.128;5.938;2024-01-06T03:48:47;10.23;71.84
65876;HTU21D;52657;51.128;5.938;2024-01-06T03:51:13;10.23;71.69
65876;HTU21D;52657;51.128;5.938;2024-01-06T03:53:38;10.12;72.04
65876;HTU21D;52657;51.128;5.938;2024-01-06T03:56:06;10.09;72.09
65876;HTU21D;52657;51.128;5.938;2024-01-06T03:58:32;10.10;72.32
65876;HTU21D;52657;51.128;5.938;2024-01-06T04:00:58;10.09;72.32
65876;HTU21D;52657;51.128;5.938;2024-01-06T04:03:23;10.08;72.42
65876;HTU21D;52657;51.128;5.938;2024-01-06T04:05:49;10.07;72.52
65876;HTU21D;52657;51.128;5.938;2024-01-06T04:08:14;10.08;72.43
65876;HTU21D;52657;51.128;5.938;2024-01-06T04:10:40;10.08;72.19
65876;HTU21D;52657;51.128;5.938;2024-01-06T04:13:07;10.03;72.32
65876;HTU21D;52657;51.128;5.938;2024-01-06T04:15:33;9.98;72.34
65876;HTU21D;52657;51.128;5.938;2024-01-06T04:18:03;9.95;72.61
65876;HTU21D;52657;51.128;5.938;2024-01-06T04:20:30;9.99;72.67
65876;HTU21D;52657;51.128;5.938;2024-01-06T04:22:56;10.08;72.41
65876;HTU21D;52657;51.128;5.938;2024-01-06T04:25:21;10.03;72.32
65876;HTU21D;52657;51.128;5.938;2024-01-06T04:27:48;9.98;72.38
65876;HTU21D;52657;51.128;5.938;2024-01-06T04:30:15;9.97;72.41
65876;HTU21D;52657;51.128;5.938;2024-01-06T04:32:41;10.01;72.42
65876;HTU21D;52657;51.128;5.938;2024-01-06T04:35:07;10.06;72.36
65876;HTU21D;52657;51.128;5.938;2024-01-06T04:37:33;10.10;72.32
65876;HTU21D;52657;51.128;5.938;2024-01-06T04:39:59;10.15;72.09
65876;HTU21D;52657;51.128;5.938;2024-01-06T04:42:25;10.15;72.06
65876;HTU21D;52657;51.128;5.938;2024-01-06T04:44:51;10.15;71.90
65876;HTU21D;52657;51.128;5.938;2024-01-06T04:47:17;10.13;71.70
65876;HTU21D;52657;51.128;5.938;2024-01-06T04:49:43;10.13;71.78
65876;HTU21D;52657;51.128;5.938;2024-01-06T04:52:10;10.11;71.74
65876;HTU21D;52657;51.128;5.938;2024-01-06T04:54:36;10.05;71.84
65876;HTU21D;52657;51.128;5.938;2024-01-06T04:57:02;9.97;71.51
65876;HTU21D;52657;51.128;5.938;2024-01-06T04:59:30;9.85;71.35
65876;HTU21D;52657;51.128;5.938;2024-01-06T05:01:57;9.74;71.51
65876;HTU21D;52657;51.128;5.938;2024-01-06T05:04:23;9.67;71.90
65876;HTU21D;52657;51.128;5.938;2024-01-06T05:06:48;9.63;71.50
65876;HTU21D;52657;51.128;5.938;2024-01-06T05:09:15;9.57;71.32
65876;HTU21D;52657;51.128;5.938;2024-01-06T05:11:43;9.52;71.12
65876;HTU21D;52657;51.128;5.938;2024-01-06T05:14:08;9.51;70.80
65876;HTU21D;52657;51.128;5.938;2024-01-06T05:16:34;9.38;70.79
65876;HTU21D;52657;51.128;5.938;2024-01-06T05:19:00;9.36;70.93
65876;HTU21D;52657;51.128;5.938;2024-01-06T05:21:25;9.39;70.78
65876;HTU21D;52657;51.128;5.938;2024-01-06T05:23:51;9.32;70.63
65876;HTU21D;52657;51.128;5.938;2024-01-06T05:26:16;9.23;70.32
65876;HTU21D;52657;51.128;5.938;2024-01-06T05:28:42;9.15;70.10
65876;HTU21D;52657;51.128;5.938;2024-01-06T05:31:08;9.08;70.36
65876;HTU21D;52657;51.128;5.938;2024-01-06T05:33:34;9.09;70.53
65876;HTU21D;52657;51.128;5.938;2024-01-06T05:35:59;9.12;69.94
65876;HTU21D;52657;51.128;5.938;2024-01-06T05:38:25;9.00;70.23
65876;HTU21D;52657;51.128;5.938;2024-01-06T05:40:51;8.97;70.64
65876;HTU21D;52657;51.128;5.938;2024-01-06T05:43:16;8.95;70.41
65876;HTU21D;52657;51.128;5.938;2024-01-06T05:45:42;8.87;70.92
65876;HTU21D;52657;51.128;5.938;2024-01-06T05:48:09;8.88;71.14
65876;HTU21D;52657;51.128;5.938;2024-01-06T05:50:35;8.97;71.26
65876;HTU21D;52657;51.128;5.938;2024-01-06T05:53:01;9.06;71.01
65876;HTU21D;52657;51.128;5.938;2024-01-06T05:55:27;9.09;70.84
65876;HTU21D;52657;51.128;5.938;2024-01-06T05:57:53;9.11;70.38
65876;HTU21D;52657;51.128;5.938;2024-01-06T06:00:18;9.02;70.70
65876;HTU21D;52657;51.128;5.938;2024-01-06T06:02:44;8.95;70.94
65876;HTU21D;52657;51.128;5.938;2024-01-06T06:05:10;8.92;70.82
65876;HTU21D;52657;51.128;5.938;2024-01-06T06:07:36;8.90;71.05
65876;HTU21D;52657;51.128;5.938;2024-01-06T06:10:09;8.87;71.13
65876;HTU21D;52657;51.128;5.938;2024-01-06T06:12:35;8.72;70.86
65876;HTU21D;52657;51.128;5.938;2024-01-06T06:15:03;8.56;71.45
65876;HTU21D;52657;51.128;5.938;2024-01-06T06:17:33;8.53;71.74
65876;HTU21D;52657;51.128;5.938;2024-01-06T06:19:59;8.50;72.06
65876;HTU21D;52657;51.128;5.938;2024-01-06T06:22:26;8.49;72.08
65876;HTU21D;52657;51.128;5.938;2024-01-06T06:25:00;8.50;71.89
65876;HTU21D;52657;51.128;5.938;2024-01-06T06:27:26;8.49;72.11
65876;HTU21D;52657;51.128;5.938;2024-01-06T06:29:53;8.47;71.84
65876;HTU21D;52657;51.128;5.938;2024-01-06T06:32:19;8.46;71.89
65876;HTU21D;52657;51.128;5.938;2024-01-06T06:34:45;8.49;71.43
65876;HTU21D;52657;51.128;5.938;2024-01-06T06:37:10;8.52;71.20
65876;HTU21D;52657;51.128;5.938;2024-01-06T06:39:36;8.55;70.87
65876;HTU21D;52657;51.128;5.938;2024-01-06T06:42:03;8.57;70.97
65876;HTU21D;52657;51.128;5.938;2024-01-06T06:44:29;8.60;70.81
65876;HTU21D;52657;51.128;5.938;2024-01-06T06:46:56;8.67;70.48
65876;HTU21D;52657;51.128;5.938;2024-01-06T06:49:22;8.64;70.44
65876;HTU21D;52657;51.128;5.938;2024-01-06T06:51:47;8.70;70.19
65876;HTU21D;52657;51.128;5.938;2024-01-06T06:54:14;8.75;70.17
65876;HTU21D;52657;51.128;5.938;2024-01-06T06:56:42;8.82;69.92
65876;HTU21D;52657;51.128;5.938;2024-01-06T06:59:16;8.80;69.51
65876;HTU21D;52657;51.128;5.938;2024-01-06T07:01:42;8.79;69.10
65876;HTU21D;52657;51.128;5.938;2024-01-06T07:04:07;8.72;69.15
65876;HTU21D;52657;51.128;5.938;2024-01-06T07:06:34;8.68;69.35
65876;HTU21D;52657;51.128;5.938;2024-01-06T07:08:59;8.67;69.11
65876;HTU21D;52657;51.128;5.938;2024-01-06T07:11:25;8.64;69.26
65876;HTU21D;52657;51.128;5.938;2024-01-06T07:13:51;8.62;68.91
65876;HTU21D;52657;51.128;5.938;2024-01-06T07:16:16;8.55;69.25
65876;HTU21D;52657;51.128;5.938;2024-01-06T07:18:42;8.51;69.11
65876;HTU21D;52657;51.128;5.938;2024-01-06T07:21:08;8.56;69.41
65876;HTU21D;52657;51.128;5.938;2024-01-06T07:23:34;8.59;69.41
65876;HTU21D;52657;51.128;5.938;2024-01-06T07:26:00;8.63;69.23
65876;HTU21D;52657;51.128;5.938;2024-01-06T07:28:27;8.72;68.72
65876;HTU21D;52657;51.128;5.938;2024-01-06T07:30:53;8.67;68.75
65876;HTU21D;52657;51.128;5.938;2024-01-06T07:33:19;8.62;68.84
65876;HTU21D;52657;51.128;5.938;2024-01-06T07:35:44;8.62;68.80
65876;HTU21D;52657;51.128;5.938;2024-01-06T07:38:11;8.60;68.62
65876;HTU21D;52657;51.128;5.938;2024-01-06T07:40:37;8.62;68.94
65876;HTU21D;52657;51.128;5.938;2024-01-06T07:43:03;8.68;68.97
65876;HTU21D;52657;51.128;5.938;2024-01-06T07:45:30;8.67;69.14
65876;HTU21D;52657;51.128;5.938;2024-01-06T07:48:00;8.73;69.10
65876;HTU21D;52657;51.128;5.938;2024-01-06T07:50:26;8.73;68.75
65876;HTU21D;52657;51.128;5.938;2024-01-06T07:52:54;8.73;68.87
65876;HTU21D;52657;51.128;5.938;2024-01-06T07:55:20;8.78;68.88
65876;HTU21D;52657;51.128;5.938;2024-01-06T07:57:46;8.79;68.65
65876;HTU21D;52657;51.128;5.938;2024-01-06T08:00:12;8.83;68.74
65876;HTU21D;52657;51.128;5.938;2024-01-06T08:02:42;8.86;68.49
65876;HTU21D;52657;51.128;5.938;2024-01-06T08:05:09;8.85;68.64
65876;HTU21D;52657;51.128;5.938;2024-01-06T08:07:35;8.82;68.53
65876;HTU21D;52657;51.128;5.938;2024-01-06T08:10:01;8.80;68.58
65876;HTU21D;52657;51.128;5.938;2024-01-06T08:12:31;8.78;68.64
65876;HTU21D;52657;51.128;5.938;2024-01-06T08:14:57;8.77;68.81
65876;HTU21D;52657;51.128;5.938;2024-01-06T08:17:22;8.77;68.97
65876;HTU21D;52657;51.128;5.938;2024-01-06T08:19:49;8.75;68.80
65876;HTU21D;52657;51.128;5.938;2024-01-06T08:22:15;8.77;68.89
65876;HTU21D;52657;51.128;5.938;2024-01-06T08:24:40;8.79;68.71
65876;HTU21D;52657;51.128;5.938;2024-01-06T08:27:07;8.71;69.01
65876;HTU21D;52657;51.128;5.938;2024-01-06T08:29:32;8.70;69.21
65876;HTU21D;52657;51.128;5.938;2024-01-06T08:32:00;8.72;69.00
65876;HTU21D;52657;51.128;5.938;2024-01-06T08:34:25;8.68;69.20
65876;HTU21D;52657;51.128;5.938;2024-01-06T08:36:52;8.70;68.84
65876;HTU21D;52657;51.128;5.938;2024-01-06T08:39:18;8.64;69.01
65876;HTU21D;52657;51.128;5.938;2024-01-06T08:41:44;8.63;68.96
65876;HTU21D;52657;51.128;5.938;2024-01-06T08:44:10;8.63;68.75
65876;HTU21D;52657;51.128;5.938;2024-01-06T08:46:35;8.56;68.78
65876;HTU21D;52657;51.128;5.938;2024-01-06T08:49:04;8.47;69.15
65876;HTU21D;52657;51.128;5.938;2024-01-06T08:51:30;8.48;69.25
65876;HTU21D;52657;51.128;5.938;2024-01-06T08:53:56;8.44;68.99
65876;HTU21D;52657;51.128;5.938;2024-01-06T08:56:22;8.43;69.26
65876;HTU21D;52657;51.128;5.938;2024-01-06T08:58:48;8.44;68.98
65876;HTU21D;52657;51.128;5.938;2024-01-06T09:01:14;8.41;69.08
65876;HTU21D;52657;51.128;5.938;2024-01-06T09:03:46;8.45;69.04
65876;HTU21D;52657;51.128;5.938;2024-01-06T09:06:12;8.49;69.16
65876;HTU21D;52657;51.128;5.938;2024-01-06T09:08:37;8.49;69.07
65876;HTU21D;52657;51.128;5.938;2024-01-06T09:11:03;8.49;69.17
65876;HTU21D;52657;51.128;5.938;2024-01-06T09:13:29;8.52;69.04
65876;HTU21D;52657;51.128;5.938;2024-01-06T09:15:55;8.51;68.83
65876;HTU21D;52657;51.128;5.938;2024-01-06T09:18:25;8.53;68.82
65876;HTU21D;52657;51.128;5.938;2024-01-06T09:20:51;8.55;68.60
65876;HTU21D;52657;51.128;5.938;2024-01-06T09:23:17;8.47;68.91
65876;HTU21D;52657;51.128;5.938;2024-01-06T09:25:44;8.43;68.91
65876;HTU21D;52657;51.128;5.938;2024-01-06T09:28:09;8.43;69.26
65876;HTU21D;52657;51.128;5.938;2024-01-06T09:30:36;8.49;69.04
65876;HTU21D;52657;51.128;5.938;2024-01-06T09:33:06;8.47;69.11
65876;HTU21D;52657;51.128;5.938;2024-01-06T09:35:34;8.53;69.39
65876;HTU21D;52657;51.128;5.938;2024-01-06T09:38:00;8.58;69.45
65876;HTU21D;52657;51.128;5.938;2024-01-06T09:40:26;8.61;69.36
65876;HTU21D;52657;51.128;5.938;2024-01-06T09:42:55;8.61;69.17
65876;HTU21D;52657;51.128;5.938;2024-01-06T09:45:21;8.55;69.50
65876;HTU21D;52657;51.128;5.938;2024-01-06T09:47:51;8.56;69.49
65876;HTU21D;52657;51.128;5.938;2024-01-06T09:50:21;8.48;69.72
65876;HTU21D;52657;51.128;5.938;2024-01-06T09:52:48;8.44;70.04
65876;HTU21D;52657;51.128;5.938;2024-01-06T09:55:26;8.38;70.21
65876;HTU21D;52657;51.128;5.938;2024-01-06T09:57:53;8.36;70.35
65876;HTU21D;52657;51.128;5.938;2024-01-06T10:00:20;8.33;70.72
65876;HTU21D;52657;51.128;5.938;2024-01-06T10:02:47;8.38;70.88
65876;HTU21D;52657;51.128;5.938;2024-01-06T10:05:15;8.44;70.84
65876;HTU21D;52657;51.128;5.938;2024-01-06T10:07:43;8.49;70.69
65876;HTU21D;52657;51.128;5.938;2024-01-06T10:10:12;8.44;70.60
65876;HTU21D;52657;51.128;5.938;2024-01-06T10:12:38;8.44;70.61
65876;HTU21D;52657;51.128;5.938;2024-01-06T10:15:09;8.47;70.84
65876;HTU21D;52657;51.128;5.938;2024-01-06T10:17:41;8.49;70.36
65876;HTU21D;52657;51.128;5.938;2024-01-06T10:20:11;8.46;70.81
65876;HTU21D;52657;51.128;5.938;2024-01-06T10:22:40;8.45;70.94
65876;HTU21D;52657;51.128;5.938;2024-01-06T10:25:08;8.45;71.16
65876;HTU21D;52657;51.128;5.938;2024-01-06T10:27:35;8.46;71.16
65876;HTU21D;52657;51.128;5.938;2024-01-06T10:30:01;8.49;70.52
65876;HTU21D;52657;51.128;5.938;2024-01-06T10:32:35;8.39;70.52
65876;HTU21D;52657;51.128;5.938;2024-01-06T10:35:05;8.36;70.82
65876;HTU21D;52657;51.128;5.938;2024-01-06T10:37:41;8.41;70.99
65876;HTU21D;52657;51.128;5.938;2024-01-06T10:40:09;8.46;71.04
65876;HTU21D;52657;51.128;5.938;2024-01-06T10:42:36;8.51;71.07
65876;HTU21D;52657;51.128;5.938;2024-01-06T10:45:12;8.47;70.35
65876;HTU21D;52657;51.128;5.938;2024-01-06T10:47:40;8.44;70.79
65876;HTU21D;52657;51.128;5.938;2024-01-06T10:50:07;8.45;70.98
65876;HTU21D;52657;51.128;5.938;2024-01-06T10:52:38;8.45;70.60
65876;HTU21D;52657;51.128;5.938;2024-01-06T10:55:05;8.34;70.69
65876;HTU21D;52657;51.128;5.938;2024-01-06T10:57:38;8.36;70.87
65876;HTU21D;52657;51.128;5.938;2024-01-06T11:00:07;8.30;70.52
65876;HTU21D;52657;51.128;5.938;2024-01-06T11:02:35;8.30;70.59
65876;HTU21D;52657;51.128;5.938;2024-01-06T11:05:01;8.18;70.29
65876;HTU21D;52657;51.128;5.938;2024-01-06T11:07:34;7.94;70.78
65876;HTU21D;52657;51.128;5.938;2024-01-06T11:10:15;7.84;71.19
65876;HTU21D;52657;51.128;5.938;2024-01-06T11:12:42;7.77;71.40
65876;HTU21D;52657;51.128;5.938;2024-01-06T11:15:09;7.71;71.62
65876;HTU21D;52657;51.128;5.938;2024-01-06T11:17:55;7.76;71.51
65876;HTU21D;52657;51.128;5.938;2024-01-06T11:20:24;7.69;71.88
65876;HTU21D;52657;51.128;5.938;2024-01-06T11:22:51;7.69;72.05
65876;HTU21D;52657;51.128;5.938;2024-01-06T11:25:22;7.62;71.88
65876;HTU21D;52657;51.128;5.938;2024-01-06T11:27:49;7.58;72.03
65876;HTU21D;52657;51.128;5.938;2024-01-06T11:30:24;7.54;72.57
65876;HTU21D;52657;51.128;5.938;2024-01-06T11:32:55;7.59;72.69
65876;HTU21D;52657;51.128;5.938;2024-01-06T11:35:27;7.60;72.46
65876;HTU21D;52657;51.128;5.938;2024-01-06T11:37:55;7.61;72.81
65876;HTU21D;52657;51.128;5.938;2024-01-06T11:40:31;7.62;72.87
65876;HTU21D;52657;51.128;5.938;2024-01-06T11:42:58;7.69;72.90
65876;HTU21D;52657;51.128;5.938;2024-01-06T11:45:25;7.65;72.89
65876;HTU21D;52657;51.128;5.938;2024-01-06T11:47:56;7.72;73.00
65876;HTU21D;52657;51.128;5.938;2024-01-06T11:50:26;7.77;72.63
65876;HTU21D;52657;51.128;5.938;2024-01-06T11:52:53;7.77;72.53
65876;HTU21D;52657;51.128;5.938;2024-01-06T11:55:20;7.78;72.29
65876;HTU21D;52657;51.128;5.938;2024-01-06T11:57:46;7.79;72.23
65876;HTU21D;52657;51.128;5.938;2024-01-06T12:00:16;7.83;71.98
65876;HTU21D;52657;51.128;5.938;2024-01-06T12:02:43;7.87;71.83
65876;HTU21D;52657;51.128;5.938;2024-01-06T12:05:14;7.91;71.11
65876;HTU21D;52657;51.128;5.938;2024-01-06T12:07:41;7.84;70.90
65876;HTU21D;52657;51.128;5.938;2024-01-06T12:10:11;7.77;70.68
65876;HTU21D;52657;51.128;5.938;2024-01-06T12:12:38;7.70;71.01
65876;HTU21D;52657;51.128;5.938;2024-01-06T12:15:05;7.68;71.09
65876;HTU21D;52657;51.128;5.938;2024-01-06T12:17:33;7.68;71.42
65876;HTU21D;52657;51.128;5.938;2024-01-06T12:19:59;7.60;71.55
65876;HTU21D;52657;51.128;5.938;2024-01-06T12:22:25;7.59;71.35
65876;HTU21D;52657;51.128;5.938;2024-01-06T12:24:51;7.50;71.55
65876;HTU21D;52657;51.128;5.938;2024-01-06T12:27:17;7.50;71.51
65876;HTU21D;52657;51.128;5.938;2024-01-06T12:29:44;7.48;71.62
65876;HTU21D;52657;51.128;5.938;2024-01-06T12:32:10;7.52;71.55
65876;HTU21D;52657;51.128;5.938;2024-01-06T12:34:37;7.50;71.50
65876;HTU21D;52657;51.128;5.938;2024-01-06T12:37:06;7.54;71.50
65876;HTU21D;52657;51.128;5.938;2024-01-06T12:39:34;7.61;71.30
65876;HTU21D;52657;51.128;5.938;2024-01-06T12:42:04;7.59;71.40
65876;HTU21D;52657;51.128;5.938;2024-01-06T12:44:30;7.65;71.48
65876;HTU21D;52657;51.128;5.938;2024-01-06T12:46:58;7.69;71.35
65876;HTU21D;52657;51.128;5.938;2024-01-06T12:49:24;7.73;70.89
65876;HTU21D;52657;51.128;5.938;2024-01-06T12:51:49;7.74;70.77
65876;HTU21D;52657;51.128;5.938;2024-01-06T12:54:16;7.71;70.69
65876;HTU21D;52657;51.128;5.938;2024-01-06T12:56:42;7.63;70.48
65876;HTU21D;52657;51.128;5.938;2024-01-06T12:59:07;7.59;71.19
65876;HTU21D;52657;51.128;5.938;2024-01-06T13:01:34;7.63;70.67
65876;HTU21D;52657;51.128;5.938;2024-01-06T13:04:00;7.55;71.20
65876;HTU21D;52657;51.128;5.938;2024-01-06T13:06:27;7.57;71.62
65876;HTU21D;52657;51.128;5.938;2024-01-06T13:08:53;7.64;71.45
65876;HTU21D;52657;51.128;5.938;2024-01-06T13:11:19;7.63;71.45
65876;HTU21D;52657;51.128;5.938;2024-01-06T13:13:45;7.69;71.28
65876;HTU21D;52657;51.128;5.938;2024-01-06T13:16:11;7.72;70.97
65876;HTU21D;52657;51.128;5.938;2024-01-06T13:18:37;7.68;70.77
65876;HTU21D;52657;51.128;5.938;2024-01-06T13:21:03;7.61;70.61
65876;HTU21D;52657;51.128;5.938;2024-01-06T13:23:29;7.53;70.74
65876;HTU21D;52657;51.128;5.938;2024-01-06T13:25:55;7.45;70.83
65876;HTU21D;52657;51.128;5.938;2024-01-06T13:28:23;7.43;71.17
65876;HTU21D;52657;51.128;5.938;2024-01-06T13:30:50;7.42;70.58
65876;HTU21D;52657;51.128;5.938;2024-01-06T13:33:16;7.29;71.27
65876;HTU21D;52657;51.128;5.938;2024-01-06T13:35:41;7.33;71.13
65876;HTU21D;52657;51.128;5.938;2024-01-06T13:38:07;7.35;71.04
65876;HTU21D;52657;51.128;5.938;2024-01-06T13:40:35;7.33;71.64
65876;HTU21D;52657;51.128;5.938;2024-01-06T13:43:01;7.41;71.51
65876;HTU21D;52657;51.128;5.938;2024-01-06T13:45:30;7.53;71.00
65876;HTU21D;52657;51.128;5.938;2024-01-06T13:47:56;7.54;70.87
65876;HTU21D;52657;51.128;5.938;2024-01-06T13:50:22;7.56;70.81
65876;HTU21D;52657;51.128;5.938;2024-01-06T13:52:48;7.47;71.00
65876;HTU21D;52657;51.128;5.938;2024-01-06T13:55:14;7.49;70.74
65876;HTU21D;52657;51.128;5.938;2024-01-06T13:57:40;7.37;70.83
65876;HTU21D;52657;51.128;5.938;2024-01-06T14:00:10;7.35;70.73
65876;HTU21D;52657;51.128;5.938;2024-01-06T14:02:40;7.23;71.19
65876;HTU21D;52657;51.128;5.938;2024-01-06T14:05:06;7.25;71.59
65876;HTU21D;52657;51.128;5.938;2024-01-06T14:07:37;7.26;71.27
65876;HTU21D;52657;51.128;5.938;2024-01-06T14:10:05;7.25;71.58
65876;HTU21D;52657;51.128;5.938;2024-01-06T14:12:32;7.26;71.45
65876;HTU21D;52657;51.128;5.938;2024-01-06T14:15:04;7.26;71.42
65876;HTU21D;52657;51.128;5.938;2024-01-06T14:17:32;7.32;71.75
65876;HTU21D;52657;51.128;5.938;2024-01-06T14:19:58;7.37;70.81
65876;HTU21D;52657;51.128;5.938;2024-01-06T14:22:24;7.32;71.26
65876;HTU21D;52657;51.128;5.938;2024-01-06T14:24:49;7.29;71.04
65876;HTU21D;52657;51.128;5.938;2024-01-06T14:27:19;7.20;71.10
65876;HTU21D;52657;51.128;5.938;2024-01-06T14:29:46;7.16;71.26
65876;HTU21D;52657;51.128;5.938;2024-01-06T14:32:12;7.24;71.32
65876;HTU21D;52657;51.128;5.938;2024-01-06T14:34:38;7.30;70.92
65876;HTU21D;52657;51.128;5.938;2024-01-06T14:37:05;7.30;71.00
65876;HTU21D;52657;51.128;5.938;2024-01-06T14:39:31;7.35;71.03
65876;HTU21D;52657;51.128;5.938;2024-01-06T14:41:57;7.42;70.80
65876;HTU21D;52657;51.128;5.938;2024-01-06T14:44:22;7.45;70.71
65876;HTU21D;52657;51.128;5.938;2024-01-06T14:46:49;7.45;69.97
65876;HTU21D;52657;51.128;5.938;2024-01-06T14:49:19;7.30;69.95
65876;HTU21D;52657;51.128;5.938;2024-01-06T14:51:45;7.25;70.39
65876;HTU21D;52657;51.128;5.938;2024-01-06T14:54:11;7.26;70.64
65876;HTU21D;52657;51.128;5.938;2024-01-06T14:56:38;7.32;70.54
65876;HTU21D;52657;51.128;5.938;2024-01-06T14:59:04;7.35;69.90
65876;HTU21D;52657;51.128;5.938;2024-01-06T15:01:35;7.31;70.06
65876;HTU21D;52657;51.128;5.938;2024-01-06T15:04:01;7.32;70.10
65876;HTU21D;52657;51.128;5.938;2024-01-06T15:06:27;7.32;69.91
65876;HTU21D;52657;51.128;5.938;2024-01-06T15:08:53;7.37;70.08
65876;HTU21D;52657;51.128;5.938;2024-01-06T15:11:19;7.39;69.49
65876;HTU21D;52657;51.128;5.938;2024-01-06T15:13:45;7.28;69.21
65876;HTU21D;52657;51.128;5.938;2024-01-06T15:16:11;7.12;69.26
65876;HTU21D;52657;51.128;5.938;2024-01-06T15:18:36;6.99;69.73
65876;HTU21D;52657;51.128;5.938;2024-01-06T15:21:05;6.91;70.03
65876;HTU21D;52657;51.128;5.938;2024-01-06T15:23:30;6.96;70.59
65876;HTU21D;52657;51.128;5.938;2024-01-06T15:25:56;7.05;70.40